createdAt,value
2024-05-09T00:01:23.166Z,3.20
2024-05-09T00:03:53.434Z,3.10
2024-05-09T00:06:23.758Z,4.15
2024-05-09T00:08:54.053Z,3.88
2024-05-09T00:11:24.221Z,3.67
2024-05-09T00:13:54.768Z,3.45
2024-05-09T00:16:27.411Z,3.55
2024-05-09T00:18:57.576Z,3.75
2024-05-09T00:21:27.463Z,4.10
2024-05-09T00:23:57.663Z,3.78
2024-05-09T00:26:27.694Z,3.30
2024-05-09T00:28:57.935Z,3.70
2024-05-09T00:31:30.516Z,3.30
2024-05-09T00:34:01.068Z,4.80
2024-05-09T00:36:31.118Z,4.03
2024-05-09T00:39:01.240Z,4.18
2024-05-09T00:41:31.446Z,6.88
2024-05-09T00:44:02.727Z,5.00
2024-05-09T00:46:35.459Z,6.38
2024-05-09T00:49:05.800Z,6.65
2024-05-09T00:51:35.679Z,5.70
2024-05-09T00:54:06.043Z,5.68
2024-05-09T00:56:38.018Z,6.40
2024-05-09T00:59:09.593Z,6.57
2024-05-09T01:01:44.528Z,7.80
2024-05-09T01:04:15.238Z,7.53
2024-05-09T01:06:45.496Z,8.00
2024-05-09T01:09:15.848Z,6.53
2024-05-09T01:11:45.876Z,6.50
2024-05-09T01:14:16.329Z,7.03
2024-05-09T01:16:48.987Z,5.72
2024-05-09T01:19:25.870Z,6.47
2024-05-09T01:21:55.819Z,5.30
2024-05-09T01:24:28.526Z,5.18
2024-05-09T01:26:58.536Z,4.90
2024-05-09T01:29:28.912Z,5.43
2024-05-09T01:32:04.537Z,6.28
2024-05-09T01:34:35.190Z,5.15
2024-05-09T01:37:05.099Z,4.45
2024-05-09T01:39:38.082Z,4.88
2024-05-09T01:42:08.306Z,4.63
2024-05-09T01:44:38.448Z,4.22
2024-05-09T01:47:08.450Z,4.13
2024-05-09T01:49:40.151Z,4.20
2024-05-09T01:52:09.951Z,3.38
2024-05-09T01:54:42.652Z,4.43
2024-05-09T01:57:12.698Z,5.25
2024-05-09T01:59:42.928Z,4.40
2024-05-09T02:02:12.963Z,4.22
2024-05-09T02:04:43.714Z,4.05
2024-05-09T02:07:13.677Z,5.03
2024-05-09T02:09:46.301Z,4.25
2024-05-09T02:12:16.470Z,4.30
2024-05-09T02:14:46.905Z,5.22
2024-05-09T02:17:16.920Z,4.70
2024-05-09T02:19:47.052Z,4.20
2024-05-09T02:22:16.897Z,5.30
2024-05-09T02:24:49.545Z,5.00
2024-05-09T02:27:19.417Z,4.85
2024-05-09T02:29:49.246Z,4.32
2024-05-09T02:32:19.202Z,5.35
2024-05-09T02:34:46.588Z,5.53
2024-05-09T02:37:16.478Z,4.72
2024-05-09T02:39:46.428Z,5.60
2024-05-09T02:42:16.353Z,5.03
2024-05-09T02:44:43.610Z,4.85
2024-05-09T02:47:13.498Z,4.53
2024-05-09T02:49:41.064Z,5.70
2024-05-09T02:52:10.961Z,4.45
2024-05-09T02:54:38.716Z,4.97
2024-05-09T02:57:11.638Z,5.00
2024-05-09T02:59:38.855Z,6.13
2024-05-09T03:02:08.743Z,4.97
2024-05-09T03:04:36.127Z,4.25
2024-05-09T03:07:06.258Z,5.18
2024-05-09T03:09:33.565Z,5.45
2024-05-09T03:12:03.903Z,5.05
2024-05-09T03:14:34.010Z,5.20
2024-05-09T03:17:04.175Z,7.35
2024-05-09T03:19:31.650Z,5.18
2024-05-09T03:22:01.746Z,7.38
2024-05-09T03:24:29.181Z,6.10
2024-05-09T03:26:59.133Z,5.57
2024-05-09T03:29:26.494Z,6.32
2024-05-09T03:31:59.435Z,7.68
2024-05-09T03:34:26.916Z,6.60
2024-05-09T03:36:58.675Z,5.80
2024-05-09T03:42:15.968Z,7.45
2024-05-09T03:46:26.754Z,6.93
2024-05-09T03:48:54.508Z,7.53
2024-05-09T03:51:24.411Z,7.22
2024-05-09T03:53:51.705Z,7.10
2024-05-09T03:56:21.848Z,7.50
2024-05-09T03:58:49.036Z,6.88
2024-05-09T04:01:19.538Z,7.03
2024-05-09T04:03:49.855Z,6.95
2024-05-09T04:06:23.579Z,7.65
2024-05-09T04:08:51.020Z,6.97
2024-05-09T04:11:21.339Z,6.63
2024-05-09T04:13:48.948Z,8.15
2024-05-09T04:16:18.996Z,8.02
2024-05-09T04:18:46.339Z,9.20
2024-05-09T04:21:19.225Z,8.30
2024-05-09T04:23:46.520Z,8.48
2024-05-09T04:26:16.548Z,8.70
2024-05-09T04:28:44.348Z,7.35
2024-05-09T04:31:14.272Z,6.95
2024-05-09T04:33:41.564Z,8.20
2024-05-09T04:36:11.825Z,6.38
2024-05-09T04:38:42.491Z,7.22
2024-05-09T04:41:12.841Z,6.75
2024-05-09T04:43:40.212Z,6.20
2024-05-09T04:46:10.235Z,6.60
2024-05-09T04:48:37.677Z,5.85
2024-05-09T04:51:10.035Z,5.05
2024-05-09T04:53:37.640Z,6.10
2024-05-09T04:56:11.711Z,6.05
2024-05-09T04:58:39.152Z,5.30
2024-05-09T05:01:09.035Z,5.50
2024-05-09T05:03:36.922Z,5.70
2024-05-09T05:06:07.126Z,5.45
2024-05-09T05:08:35.164Z,5.25
2024-05-09T05:11:05.568Z,5.38
2024-05-09T05:13:38.634Z,4.00
2024-05-09T05:16:10.591Z,3.80
2024-05-09T05:18:38.818Z,3.50
2024-05-09T05:21:09.130Z,4.10
2024-05-09T05:23:37.072Z,3.03
2024-05-09T05:26:08.152Z,3.55
2024-05-09T05:28:38.445Z,3.25
2024-05-09T05:31:08.407Z,2.97
2024-05-09T05:33:36.647Z,5.68
2024-05-09T05:36:07.201Z,3.05
2024-05-09T05:38:34.672Z,2.75
2024-05-09T05:41:04.906Z,2.35
2024-05-09T05:43:32.473Z,2.55
2024-05-09T05:46:05.083Z,2.00
2024-05-09T05:48:32.773Z,1.92
2024-05-09T05:51:04.525Z,1.77
2024-05-09T05:53:32.208Z,2.10
2024-05-09T05:56:02.199Z,1.77
2024-05-09T05:58:29.557Z,3.38
2024-05-09T06:00:59.595Z,1.52
2024-05-09T06:03:29.937Z,2.05
2024-05-09T06:06:00.119Z,1.75
2024-05-09T06:08:30.211Z,1.85
2024-05-09T06:11:00.628Z,1.40
2024-05-09T06:13:27.915Z,1.67
2024-05-09T06:15:59.950Z,1.20
2024-05-09T06:18:30.345Z,6.45
2024-05-09T06:21:00.505Z,1.73
2024-05-09T06:23:28.261Z,1.40
2024-05-09T06:25:58.238Z,1.48
2024-05-09T06:28:25.767Z,1.05
2024-05-09T06:30:55.863Z,1.67
2024-05-09T06:33:23.230Z,1.20
2024-05-09T06:35:59.383Z,1.17
2024-05-09T06:38:26.681Z,1.00
2024-05-09T06:40:56.999Z,1.30
2024-05-09T06:43:24.748Z,1.33
2024-05-09T06:45:55.137Z,0.93
2024-05-09T06:48:23.363Z,1.70
2024-05-09T06:50:55.972Z,1.58
2024-05-09T06:53:23.699Z,1.42
2024-05-09T06:55:53.829Z,1.00
2024-05-09T06:58:21.080Z,1.20
2024-05-09T07:00:51.408Z,1.10
2024-05-09T07:03:19.650Z,0.90
2024-05-09T07:05:50.182Z,1.00
2024-05-09T07:08:20.566Z,1.00
2024-05-09T07:10:50.579Z,1.20
2024-05-09T07:13:18.513Z,1.00
2024-05-09T07:15:49.121Z,1.17
2024-05-09T07:18:18.596Z,1.05
2024-05-09T07:20:50.642Z,0.80
2024-05-09T07:23:20.991Z,0.80
2024-05-09T07:25:51.316Z,1.08
2024-05-09T07:28:20.502Z,0.90
2024-05-09T07:30:50.949Z,0.90
2024-05-09T07:33:21.053Z,1.02
2024-05-09T07:35:53.066Z,0.82
2024-05-09T07:38:24.263Z,0.57
2024-05-09T07:40:54.507Z,0.70
2024-05-09T07:43:21.707Z,1.15
2024-05-09T07:45:54.411Z,1.10
2024-05-09T07:53:40.458Z,0.90
2024-05-09T07:56:15.286Z,0.80
2024-05-09T07:58:44.017Z,0.57
2024-05-09T08:01:14.342Z,0.57
2024-05-09T08:03:41.941Z,0.95
2024-05-09T08:06:12.238Z,0.95
2024-05-09T08:08:42.139Z,1.40
2024-05-09T08:11:12.304Z,0.70
2024-05-09T08:13:39.649Z,0.65
2024-05-09T08:16:10.404Z,0.80
2024-05-09T08:18:39.171Z,1.00
2024-05-09T08:21:09.338Z,0.60
2024-05-09T08:23:36.977Z,0.70
2024-05-09T08:26:09.884Z,0.90
2024-05-09T08:28:37.286Z,0.77
2024-05-09T08:31:07.865Z,0.85
2024-05-09T08:33:36.061Z,0.60
2024-05-09T08:36:06.769Z,0.85
2024-05-09T08:38:36.802Z,0.80
2024-05-09T08:41:07.316Z,1.05
2024-05-09T08:43:39.892Z,0.90
2024-05-09T08:47:29.581Z,1.23
2024-05-09T08:49:59.219Z,0.73
2024-05-09T08:52:29.589Z,0.77
2024-05-09T08:54:56.899Z,1.15
2024-05-09T08:57:29.509Z,1.20
2024-05-09T09:00:03.573Z,1.42
2024-05-09T09:02:40.750Z,0.82
2024-05-09T09:05:16.747Z,1.40
2024-05-09T09:07:48.697Z,1.15
2024-05-09T09:10:24.929Z,1.05
2024-05-09T09:13:05.438Z,0.73
2024-05-09T09:15:33.214Z,0.50
2024-05-09T09:20:36.750Z,0.68
2024-05-09T09:23:07.601Z,1.42
2024-05-09T09:25:34.911Z,0.73
2024-05-09T09:28:04.973Z,0.77
2024-05-09T09:30:36.982Z,0.60
2024-05-09T09:33:12.346Z,0.80
2024-05-09T09:35:40.760Z,0.80
2024-05-09T09:38:12.552Z,0.95
2024-05-09T09:40:49.558Z,1.00
2024-05-09T09:43:22.945Z,0.60
2024-05-09T09:45:52.915Z,0.95
2024-05-09T09:48:27.446Z,0.65
2024-05-09T09:50:56.794Z,0.60
2024-05-09T09:53:27.147Z,0.47
2024-05-09T09:55:55.965Z,0.73
2024-05-09T09:58:26.999Z,0.73
2024-05-09T10:00:54.602Z,0.60
2024-05-09T10:03:27.844Z,0.50
2024-05-09T10:05:55.854Z,0.60
2024-05-09T10:08:26.820Z,0.63
2024-05-09T10:10:55.440Z,0.43
2024-05-09T10:13:36.685Z,0.77
2024-05-09T10:16:09.130Z,0.80
2024-05-09T10:21:20.273Z,1.23
2024-05-09T10:24:00.765Z,0.68
2024-05-09T10:26:34.796Z,0.60
2024-05-09T10:29:17.122Z,0.60
2024-05-09T10:31:46.186Z,0.60
2024-05-09T10:34:23.802Z,0.40
2024-05-09T10:36:54.972Z,0.47
2024-05-09T10:39:25.931Z,0.40
2024-05-09T10:41:53.207Z,0.68
2024-05-09T10:44:24.319Z,0.52
2024-05-09T10:46:54.884Z,0.40
2024-05-09T10:49:28.039Z,0.50
2024-05-09T10:51:55.805Z,0.98
2024-05-09T10:54:25.830Z,0.50
2024-05-09T10:56:57.018Z,1.00
2024-05-09T10:59:27.016Z,0.50
2024-05-09T11:01:54.449Z,0.65
2024-05-09T11:04:27.378Z,1.08
2024-05-09T11:06:56.403Z,0.52
2024-05-09T11:09:26.435Z,0.63
2024-05-09T11:11:54.852Z,0.50
2024-05-09T11:14:24.918Z,0.65
2024-05-09T11:16:59.248Z,0.73
2024-05-09T11:19:35.128Z,0.50
2024-05-09T11:22:03.074Z,0.80
2024-05-09T11:24:33.386Z,0.60
2024-05-09T11:27:03.231Z,0.95
2024-05-09T11:29:40.951Z,0.57
2024-05-09T11:32:11.626Z,0.52
2024-05-09T11:34:45.156Z,0.50
2024-05-09T11:37:14.228Z,0.38
2024-05-09T11:39:44.534Z,0.73
2024-05-09T11:42:12.577Z,0.60
2024-05-09T11:47:27.759Z,0.50
2024-05-09T11:50:00.955Z,0.70
2024-05-09T11:52:29.202Z,0.50
2024-05-09T11:54:59.876Z,0.40
2024-05-09T11:57:28.927Z,1.58
2024-05-09T12:00:00.220Z,0.65
2024-05-09T12:02:28.071Z,0.40
2024-05-09T12:05:01.793Z,0.40
2024-05-09T12:07:29.674Z,0.52
2024-05-09T12:09:59.582Z,0.40
2024-05-09T12:12:27.832Z,0.60
2024-05-09T12:14:57.940Z,0.75
2024-05-09T12:17:25.294Z,0.50
2024-05-09T12:19:55.386Z,1.15
2024-05-09T12:22:25.579Z,0.55
2024-05-09T12:24:55.938Z,0.63
2024-05-09T12:27:23.383Z,0.50
2024-05-09T12:29:53.441Z,0.40
2024-05-09T12:32:20.700Z,0.30
2024-05-09T12:34:50.707Z,0.30
2024-05-09T12:37:18.779Z,0.60
2024-05-09T12:39:51.819Z,0.30
2024-05-09T12:42:26.501Z,0.60
2024-05-09T12:44:58.333Z,0.47
2024-05-09T12:47:25.809Z,0.63
2024-05-09T12:49:55.992Z,0.52
2024-05-09T12:52:23.789Z,0.63
2024-05-09T12:54:56.557Z,0.50
2024-05-09T12:57:25.523Z,0.60
2024-05-09T12:59:55.551Z,0.55
2024-05-09T13:02:23.035Z,0.30
2024-05-09T13:04:53.162Z,0.52
2024-05-09T13:07:20.743Z,0.52
2024-05-09T13:09:50.960Z,0.50
2024-05-09T13:12:21.700Z,0.70
2024-05-09T13:14:53.250Z,0.30
2024-05-09T13:17:20.757Z,0.57
2024-05-09T13:19:50.757Z,0.40
2024-05-09T13:25:05.757Z,0.40
2024-05-09T13:27:35.804Z,0.68
2024-05-09T13:30:07.789Z,0.40
2024-05-09T13:32:39.403Z,0.40
2024-05-09T13:35:09.728Z,0.63
2024-05-09T13:37:37.121Z,0.30
2024-05-09T13:40:12.000Z,0.95
2024-05-09T13:42:45.614Z,0.32
2024-05-09T13:48:27.800Z,0.50
2024-05-09T13:50:55.484Z,0.60
2024-05-09T13:53:25.596Z,0.65
2024-05-09T13:55:53.097Z,0.40
2024-05-09T13:58:23.627Z,0.40
2024-05-09T14:00:51.322Z,0.55
2024-05-09T14:03:21.613Z,0.40
2024-05-09T14:05:52.409Z,0.52
2024-05-09T14:08:23.176Z,0.90
2024-05-09T14:10:51.285Z,0.55
2024-05-09T14:13:21.392Z,0.50
2024-05-09T14:15:49.255Z,0.50
2024-05-09T14:18:19.919Z,0.55
2024-05-09T14:20:47.226Z,0.40
2024-05-09T14:23:20.600Z,0.70
2024-05-09T14:25:51.774Z,0.40
2024-05-09T14:28:22.723Z,0.40
2024-05-09T14:30:51.164Z,0.40
2024-05-09T14:33:26.574Z,0.65
2024-05-09T14:35:54.480Z,0.50
2024-05-09T14:38:27.835Z,0.50
2024-05-09T14:40:55.696Z,0.30
2024-05-09T14:43:26.028Z,0.30
2024-05-09T14:45:53.808Z,0.65
2024-05-09T14:48:23.956Z,0.60
2024-05-09T14:50:51.596Z,0.77
2024-05-09T14:53:26.624Z,1.00
2024-05-09T14:55:57.502Z,0.35
2024-05-09T14:58:27.644Z,0.43
2024-05-09T15:00:55.025Z,0.63
2024-05-09T15:03:24.974Z,0.60
2024-05-09T15:05:53.264Z,0.60
2024-05-09T15:08:23.324Z,0.30
2024-05-09T15:10:50.928Z,0.60
2024-05-09T15:13:24.477Z,0.30
2024-05-09T15:15:52.426Z,0.40
2024-05-09T15:18:22.676Z,0.60
2024-05-09T15:20:52.791Z,0.73
2024-05-09T15:23:20.192Z,0.63
2024-05-09T15:25:50.191Z,0.50
2024-05-09T15:28:20.810Z,0.28
2024-05-09T15:30:50.730Z,0.60
2024-05-09T15:33:18.385Z,0.47
2024-05-09T15:35:48.453Z,0.30
2024-05-09T15:38:16.342Z,0.60
2024-05-09T15:40:46.582Z,0.40
2024-05-09T15:43:14.322Z,0.40
2024-05-09T15:45:47.202Z,0.70
2024-05-09T15:48:14.818Z,0.60
2024-05-09T15:50:45.291Z,0.50
2024-05-09T15:53:13.415Z,0.52
2024-05-09T15:55:44.474Z,0.70
2024-05-09T15:58:12.834Z,0.47
2024-05-09T16:00:48.846Z,0.63
2024-05-09T16:03:19.589Z,0.70
2024-05-09T16:05:49.972Z,0.30
2024-05-09T16:08:17.700Z,0.55
2024-05-09T16:10:49.460Z,0.45
2024-05-09T16:13:17.878Z,0.70
2024-05-09T16:15:51.208Z,0.40
2024-05-09T16:20:50.211Z,0.50
2024-05-09T16:23:20.741Z,0.73
2024-05-09T16:25:48.644Z,0.47
2024-05-09T16:28:22.727Z,0.45
2024-05-09T16:30:54.075Z,0.75
2024-05-09T16:33:26.099Z,0.40
2024-05-09T16:35:53.813Z,0.63
2024-05-09T16:38:23.773Z,0.52
2024-05-09T16:40:51.691Z,0.60
2024-05-09T16:43:22.571Z,0.40
2024-05-09T16:45:52.706Z,0.52
2024-05-09T16:48:22.852Z,0.77
2024-05-09T16:50:50.228Z,0.50
2024-05-09T16:53:21.286Z,0.20
2024-05-09T16:55:49.094Z,0.55
2024-05-09T16:58:19.555Z,0.40
2024-05-09T17:00:47.038Z,0.55
2024-05-09T17:03:21.334Z,0.50
2024-05-09T17:05:50.490Z,0.52
2024-05-09T17:08:20.916Z,0.68
2024-05-09T17:10:49.499Z,0.55
2024-05-09T17:13:21.178Z,0.50
2024-05-09T17:15:52.363Z,0.60
2024-05-09T17:18:25.687Z,0.60
2024-05-09T17:20:55.873Z,0.50
2024-05-09T17:23:23.717Z,0.73
2024-05-09T17:25:54.089Z,0.22
2024-05-09T17:28:21.605Z,0.30
2024-05-09T17:30:52.330Z,0.40
2024-05-09T17:33:22.676Z,0.40
2024-05-09T17:35:52.957Z,0.75
2024-05-09T17:38:23.068Z,0.60
2024-05-09T17:40:53.673Z,0.50
2024-05-09T17:43:21.305Z,0.40
2024-05-09T17:45:51.634Z,0.40
2024-05-09T17:48:19.503Z,0.65
2024-05-09T17:50:52.369Z,1.02
2024-05-09T17:53:20.167Z,0.85
2024-05-09T17:55:54.058Z,0.55
2024-05-09T17:58:22.358Z,0.50
2024-05-09T18:00:53.009Z,0.47
2024-05-09T18:03:23.728Z,0.50
2024-05-09T18:05:56.701Z,0.47
2024-05-09T18:08:24.188Z,0.70
2024-05-09T18:10:55.565Z,0.70
2024-05-09T18:13:23.507Z,0.30
2024-05-09T18:15:53.677Z,0.88
2024-05-09T18:18:21.266Z,0.40
2024-05-09T18:20:51.385Z,1.27
2024-05-09T18:23:21.489Z,0.40
2024-05-09T18:28:39.668Z,0.40
2024-05-09T18:31:09.674Z,0.40
2024-05-09T18:33:37.146Z,0.40
2024-05-09T18:36:07.726Z,0.43
2024-05-09T18:38:38.954Z,0.57
2024-05-09T18:41:09.242Z,0.60
2024-05-09T18:43:44.948Z,0.60
2024-05-09T18:49:33.289Z,0.50
2024-05-09T18:52:00.835Z,0.28
2024-05-09T18:54:31.237Z,0.63
2024-05-09T18:56:58.530Z,0.40
2024-05-09T18:59:28.557Z,0.50
2024-05-09T19:01:56.042Z,0.40
2024-05-09T19:04:29.151Z,0.73
2024-05-09T19:06:56.961Z,0.52
2024-05-09T19:09:27.451Z,0.90
2024-05-09T19:11:55.248Z,0.80
2024-05-09T19:14:26.412Z,0.63
2024-05-09T19:16:54.297Z,0.57
2024-05-09T19:19:24.823Z,0.95
2024-05-09T19:21:57.552Z,0.60
2024-05-09T19:24:28.055Z,0.60
2024-05-09T19:26:56.381Z,0.52
2024-05-09T19:29:26.531Z,1.35
2024-05-09T19:31:54.000Z,0.50
2024-05-09T19:34:23.863Z,0.82
2024-05-09T19:36:51.451Z,0.85
2024-05-09T19:39:24.755Z,0.80
2024-05-09T19:41:52.611Z,0.45
2024-05-09T19:44:22.698Z,0.63
2024-05-09T19:46:50.095Z,0.52
2024-05-09T19:49:20.289Z,1.00
2024-05-09T19:51:47.670Z,0.50
2024-05-09T19:54:17.859Z,0.73
2024-05-09T19:56:48.173Z,0.50
2024-05-09T19:59:18.317Z,0.60
2024-05-09T20:01:45.748Z,0.55
2024-05-09T20:04:16.108Z,0.40
2024-05-09T20:06:43.530Z,0.40
2024-05-09T20:09:13.342Z,0.80
2024-05-09T20:11:40.707Z,0.50
2024-05-09T20:14:14.792Z,0.60
2024-05-09T20:16:44.238Z,0.50
2024-05-09T20:19:14.226Z,0.63
2024-05-09T20:21:42.245Z,0.90
2024-05-09T20:24:12.505Z,0.63
2024-05-09T20:26:40.428Z,0.77
2024-05-09T20:29:13.031Z,0.32
2024-05-09T20:31:41.268Z,1.60
2024-05-09T20:34:11.118Z,1.02
2024-05-09T20:36:38.477Z,1.20
2024-05-09T20:39:08.463Z,1.55
2024-05-09T20:41:37.138Z,1.27
2024-05-09T20:44:07.413Z,1.02
2024-05-09T20:46:37.384Z,1.33
2024-05-09T20:49:07.605Z,1.58
2024-05-09T20:51:35.055Z,1.70
2024-05-09T20:54:04.829Z,1.02
2024-05-09T20:56:32.333Z,0.75
2024-05-09T20:59:02.214Z,1.50
2024-05-09T21:01:29.711Z,0.85
2024-05-09T21:04:02.782Z,1.15
2024-05-09T21:06:30.117Z,1.48
2024-05-09T21:09:00.537Z,0.80
2024-05-09T21:11:28.010Z,1.02
2024-05-09T21:13:57.946Z,0.73
2024-05-09T21:16:25.503Z,1.00
2024-05-09T21:18:55.645Z,0.80
2024-05-09T21:21:25.553Z,0.50
2024-05-09T21:23:55.684Z,1.00
2024-05-09T21:26:23.847Z,0.80
2024-05-09T21:28:53.808Z,0.60
2024-05-09T21:31:21.289Z,0.47
2024-05-09T21:33:51.617Z,1.05
2024-05-09T21:36:19.047Z,0.85
2024-05-09T21:38:51.668Z,1.15
2024-05-09T21:41:18.850Z,1.00
2024-05-09T21:44:08.072Z,0.75
2024-05-09T21:46:35.478Z,0.80
2024-05-09T21:49:06.002Z,0.65
2024-05-09T21:51:33.459Z,1.10
2024-05-09T21:54:06.429Z,0.95
2024-05-09T21:56:33.769Z,1.17
2024-05-09T21:59:03.755Z,1.13
2024-05-09T22:01:32.365Z,0.95
2024-05-09T22:04:02.596Z,0.85
2024-05-09T22:06:29.902Z,0.80
2024-05-09T22:09:03.214Z,0.95
2024-05-09T22:11:33.236Z,0.80
2024-05-09T22:14:03.159Z,1.10
2024-05-09T22:16:33.422Z,0.93
2024-05-09T22:19:03.518Z,1.00
2024-05-09T22:21:31.012Z,1.17
2024-05-09T22:24:00.846Z,1.08
2024-05-09T22:26:28.257Z,1.30
2024-05-09T22:29:00.933Z,1.38
2024-05-09T22:31:28.495Z,0.85
2024-05-09T22:33:58.799Z,1.00
2024-05-09T22:36:26.134Z,1.02
2024-05-09T22:38:56.238Z,0.80
2024-05-09T22:41:23.516Z,1.35
2024-05-09T22:43:54.035Z,0.82
2024-05-09T22:46:24.107Z,0.70
2024-05-09T22:48:54.624Z,0.98
2024-05-09T22:51:22.255Z,1.50
2024-05-09T22:53:52.494Z,1.95
2024-05-09T22:56:27.269Z,1.30
2024-05-09T22:58:57.306Z,1.08
2024-05-09T23:01:27.817Z,0.75
2024-05-09T23:03:57.787Z,1.38
2024-05-09T23:06:25.392Z,0.85
2024-05-09T23:08:58.209Z,0.80
2024-05-09T23:11:25.535Z,1.25
2024-05-09T23:13:55.430Z,0.50
2024-05-09T23:16:22.888Z,0.85
2024-05-09T23:18:55.653Z,0.70
2024-05-09T23:21:23.374Z,0.98
2024-05-09T23:23:53.304Z,0.70
2024-05-09T23:26:20.848Z,0.63
2024-05-09T23:28:51.393Z,0.68
2024-05-09T23:31:18.728Z,0.63
2024-05-09T23:33:49.107Z,0.50
2024-05-09T23:36:19.306Z,0.80
2024-05-09T23:38:49.310Z,0.47
2024-05-09T23:41:16.495Z,0.68
2024-05-09T23:43:46.671Z,0.98
2024-05-09T23:46:14.039Z,0.63
2024-05-09T23:50:35.662Z,0.63
2024-05-09T23:55:36.268Z,0.63
2024-05-09T23:58:03.675Z,0.70
